SDM6508 URKK-UUBW
Flight info
| Callsign | SDM6508 |
|---|---|
| Flight time | N/A |
| Altitude | 36000 |
| Route | BALEG6T BALEG W70 KISET/K0906F380 W70 AMEPU A100 KL L91 KANON T748 PEPOR T611 TUKMO N50 OLOPI OLOPI3E |
| Aircraft | B773/H-SDE1E2E3FGHIJ2J3J4J5M1RWXY/LB1D1 |
Departure
| Time | N/A |
|---|---|
| Airport | Krasnodar Pashkovsky International Airport (URKK) |
Arrival
| Time | 2026-04-23 18:06 |
|---|---|
| Airport | Zhukovsky International Airport (UUBW) |
| Time | Latitude | Longitude | Altitude | Speed | Heading |
|---|---|---|---|---|---|
| 2026-04-23 17:38 | 53.32259 | 39.69352 | 35363 ft | 491 kts | 328° |
| 2026-04-23 17:38 | 53.35208 | 39.66480 | 35361 ft | 491 kts | 328° |
| 2026-04-23 17:39 | 53.41055 | 39.60772 | 35361 ft | 490 kts | 329° |
| 2026-04-23 17:39 | 53.47110 | 39.55471 | 35354 ft | 490 kts | 333° |
| 2026-04-23 17:40 | 53.53182 | 39.50401 | 35353 ft | 490 kts | 333° |
| 2026-04-23 17:40 | 53.59278 | 39.45262 | 35350 ft | 490 kts | 333° |
| 2026-04-23 17:41 | 53.65344 | 39.40113 | 35354 ft | 491 kts | 332° |
| 2026-04-23 17:41 | 53.74457 | 39.32329 | 35359 ft | 490 kts | 332° |
| 2026-04-23 17:42 | 53.83580 | 39.24489 | 35356 ft | 490 kts | 332° |
| 2026-04-23 17:43 | 53.89623 | 39.19271 | 35351 ft | 489 kts | 332° |
| 2026-04-23 17:43 | 53.95675 | 39.14021 | 35343 ft | 488 kts | 332° |
| 2026-04-23 17:44 | 54.01725 | 39.08755 | 35336 ft | 488 kts | 332° |
| 2026-04-23 17:44 | 54.10731 | 39.00885 | 35283 ft | 476 kts | 332° |
| 2026-04-23 17:45 | 54.13628 | 38.98346 | 35181 ft | 454 kts | 332° |
| 2026-04-23 17:45 | 54.19053 | 38.93579 | 34137 ft | 439 kts | 332° |
| 2026-04-23 17:45 | 54.21811 | 38.91150 | 32929 ft | 452 kts | 332° |
| 2026-04-23 17:46 | 54.27824 | 38.87275 | 30803 ft | 476 kts | 340° |
| 2026-04-23 17:46 | 54.30831 | 38.85145 | 29963 ft | 474 kts | 333° |
| 2026-04-23 17:46 | 54.33184 | 38.83150 | 29310 ft | 472 kts | 332° |
| 2026-04-23 17:47 | 54.36101 | 38.80580 | 28389 ft | 471 kts | 331° |
| 2026-04-23 17:47 | 54.38959 | 38.78006 | 27302 ft | 474 kts | 330° |
| 2026-04-23 17:47 | 54.44797 | 38.72771 | 24963 ft | 475 kts | 330° |
| 2026-04-23 17:48 | 54.47691 | 38.70190 | 24069 ft | 464 kts | 331° |
| 2026-04-23 17:48 | 54.50548 | 38.67639 | 23167 ft | 454 kts | 331° |
| 2026-04-23 17:48 | 54.53307 | 38.65161 | 22217 ft | 446 kts | 331° |
| 2026-04-23 17:48 | 54.56004 | 38.62713 | 21265 ft | 439 kts | 331° |
| 2026-04-23 17:49 | 54.58682 | 38.60259 | 20151 ft | 435 kts | 331° |
| 2026-04-23 17:49 | 54.61306 | 38.57821 | 19238 ft | 426 kts | 331° |
| 2026-04-23 17:49 | 54.63864 | 38.55415 | 18319 ft | 418 kts | 331° |
| 2026-04-23 17:49 | 54.66363 | 38.53026 | 17275 ft | 414 kts | 332° |
| 2026-04-23 17:50 | 54.68872 | 38.50712 | 16313 ft | 407 kts | 333° |
| 2026-04-23 17:50 | 54.73793 | 38.46261 | 14459 ft | 393 kts | 333° |
| 2026-04-23 17:50 | 54.76217 | 38.44176 | 13728 ft | 384 kts | 340° |
| 2026-04-23 17:51 | 54.78750 | 38.42954 | 13542 ft | 383 kts | 353° |
| 2026-04-23 17:51 | 54.81417 | 38.42689 | 13542 ft | 380 kts | 6° |
| 2026-04-23 17:51 | 54.86461 | 38.44982 | 13888 ft | 368 kts | 27° |
| 2026-04-23 17:52 | 54.88769 | 38.46830 | 13889 ft | 363 kts | 28° |
| 2026-04-23 17:52 | 54.93245 | 38.50780 | 13900 ft | 364 kts | 29° |
| 2026-04-23 17:52 | 54.95492 | 38.52782 | 13890 ft | 362 kts | 29° |
| 2026-04-23 17:53 | 54.99970 | 38.56798 | 13885 ft | 363 kts | 29° |
| 2026-04-23 17:53 | 55.02208 | 38.58801 | 13892 ft | 362 kts | 29° |
| 2026-04-23 17:53 | 55.04448 | 38.60809 | 13886 ft | 364 kts | 29° |
| 2026-04-23 17:54 | 55.06693 | 38.62830 | 13883 ft | 364 kts | 29° |
| 2026-04-23 17:54 | 55.08942 | 38.64859 | 13868 ft | 363 kts | 29° |
| 2026-04-23 17:54 | 55.13150 | 38.68650 | 13455 ft | 323 kts | 29° |
| 2026-04-23 17:55 | 55.16880 | 38.71992 | 12873 ft | 297 kts | 29° |
| 2026-04-23 17:55 | 55.18255 | 38.73234 | 12370 ft | 298 kts | 29° |
| 2026-04-23 17:56 | 55.18720 | 38.73655 | 12177 ft | 299 kts | 29° |
| 2026-04-23 17:56 | 55.22505 | 38.76772 | 10665 ft | 305 kts | 14° |
| 2026-04-23 17:56 | 55.24594 | 38.76920 | 9998 ft | 306 kts | 352° |
| 2026-04-23 17:57 | 55.26572 | 38.75602 | 9387 ft | 306 kts | 328° |
| 2026-04-23 17:57 | 55.28091 | 38.73048 | 8732 ft | 309 kts | 306° |
| 2026-04-23 17:57 | 55.29688 | 38.66508 | 7094 ft | 318 kts | 304° |
| 2026-04-23 17:58 | 55.30916 | 38.63346 | 6280 ft | 314 kts | 313° |
| 2026-04-23 17:58 | 55.32271 | 38.60476 | 5915 ft | 298 kts | 316° |
| 2026-04-23 17:58 | 55.33591 | 38.57825 | 5726 ft | 278 kts | 317° |
| 2026-04-23 17:58 | 55.34833 | 38.55376 | 5588 ft | 260 kts | 318° |
| 2026-04-23 17:59 | 55.35997 | 38.53088 | 5497 ft | 241 kts | 319° |
| 2026-04-23 17:59 | 55.37079 | 38.50965 | 5363 ft | 225 kts | 320° |
| 2026-04-23 17:59 | 55.38080 | 38.48998 | 5317 ft | 207 kts | 321° |
| 2026-04-23 17:59 | 55.39004 | 38.47195 | 5288 ft | 188 kts | 321° |
| 2026-04-23 18:00 | 55.39867 | 38.45522 | 4982 ft | 185 kts | 321° |
| 2026-04-23 18:00 | 55.40666 | 38.43821 | 4665 ft | 178 kts | 319° |
| 2026-04-23 18:00 | 55.41489 | 38.42122 | 4000 ft | 183 kts | 322° |
| 2026-04-23 18:00 | 55.42304 | 38.40510 | 3660 ft | 173 kts | 323° |
| 2026-04-23 18:01 | 55.43116 | 38.38940 | 3435 ft | 175 kts | 322° |
| 2026-04-23 18:01 | 55.43918 | 38.37375 | 3141 ft | 169 kts | 323° |
| 2026-04-23 18:01 | 55.44700 | 38.35844 | 2934 ft | 166 kts | 322° |
| 2026-04-23 18:01 | 55.45449 | 38.34371 | 2717 ft | 153 kts | 321° |
| 2026-04-23 18:02 | 55.46106 | 38.33064 | 2514 ft | 137 kts | 323° |
| 2026-04-23 18:02 | 55.46735 | 38.31841 | 2332 ft | 132 kts | 323° |
| 2026-04-23 18:02 | 55.47339 | 38.30658 | 2172 ft | 129 kts | 322° |
| 2026-04-23 18:02 | 55.47936 | 38.29482 | 2193 ft | 131 kts | 322° |
| 2026-04-23 18:03 | 55.48542 | 38.28286 | 1994 ft | 128 kts | 322° |
| 2026-04-23 18:03 | 55.49136 | 38.27116 | 1813 ft | 129 kts | 321° |
| 2026-04-23 18:03 | 55.49736 | 38.25935 | 1631 ft | 129 kts | 320° |
| 2026-04-23 18:03 | 55.50333 | 38.24754 | 1452 ft | 128 kts | 320° |
| 2026-04-23 18:04 | 55.50926 | 38.23593 | 1264 ft | 129 kts | 319° |
| 2026-04-23 18:04 | 55.51516 | 38.22408 | 1092 ft | 127 kts | 318° |
| 2026-04-23 18:04 | 55.52093 | 38.21236 | 838 ft | 126 kts | 317° |
| 2026-04-23 18:04 | 55.52680 | 38.20092 | 692 ft | 123 kts | 317° |
| 2026-04-23 18:05 | 55.53276 | 38.18947 | 565 ft | 129 kts | 317° |
| 2026-04-23 18:05 | 55.53878 | 38.17775 | 390 ft | 122 kts | 316° |
| 2026-04-23 18:05 | 55.54360 | 38.16843 | 389 ft | 86 kts | 311° |
| 2026-04-23 18:05 | 55.54698 | 38.16170 | 389 ft | 59 kts | 307° |
| 2026-04-23 18:06 | 55.54921 | 38.15717 | 389 ft | 39 kts | 311° |
| 2026-04-23 18:06 | 55.55079 | 38.15383 | 389 ft | 33 kts | 311° |
| 2026-04-23 18:06 | 55.55231 | 38.15096 | 389 ft | 29 kts | 311° |
| 2026-04-23 18:06 | 55.55366 | 38.14830 | 388 ft | 31 kts | 311° |
| 2026-04-23 18:07 | 55.55539 | 38.14494 | 388 ft | 40 kts | 310° |
| 2026-04-23 18:07 | 55.55712 | 38.14129 | 388 ft | 37 kts | 310° |
| 2026-04-23 18:07 | 55.55877 | 38.13798 | 388 ft | 34 kts | 311° |
| 2026-04-23 18:07 | 55.56030 | 38.13497 | 388 ft | 31 kts | 313° |
| 2026-04-23 18:08 | 55.56124 | 38.13314 | 388 ft | 29 kts | 312° |
| 2026-04-23 18:08 | 55.56219 | 38.12991 | 388 ft | 14 kts | 244° |
| 2026-04-23 18:08 | 55.56179 | 38.12904 | 388 ft | 8 kts | 222° |
| 2026-04-23 18:08 | 55.56132 | 38.12828 | 388 ft | 9 kts | 230° |
| 2026-04-23 18:09 | 55.56117 | 38.12754 | 388 ft | 4 kts | 273° |
| 2026-04-23 18:09 | 55.56118 | 38.12743 | 388 ft | 0 kts | 277° |
| 2026-04-23 18:10 | 55.56118 | 38.12742 | 388 ft | 0 kts | 272° |
| 2026-04-23 18:11 | 55.56103 | 38.12717 | 388 ft | 3 kts | 204° |
| 2026-04-23 18:11 | 55.56067 | 38.12694 | 388 ft | 6 kts | 199° |
| 2026-04-23 18:11 | 55.56025 | 38.12653 | 388 ft | 7 kts | 216° |
| 2026-04-23 18:11 | 55.55981 | 38.12589 | 388 ft | 8 kts | 220° |
| 2026-04-23 18:12 | 55.55933 | 38.12517 | 388 ft | 9 kts | 220° |
| 2026-04-23 18:12 | 55.55883 | 38.12439 | 388 ft | 9 kts | 223° |
| 2026-04-23 18:12 | 55.55844 | 38.12374 | 388 ft | 2 kts | 226° |
| 2026-04-23 18:12 | 55.55843 | 38.12370 | 388 ft | 0 kts | 236° |